sensor_id;sensor_type;location;lat;lon;timestamp;temperature;humidity
67275;DHT22;55463;52.324;5.122;2022-07-21T00:02:25;19.80;83.75
67275;DHT22;55463;52.324;5.122;2022-07-21T00:04:50;19.73;83.41
67275;DHT22;55463;52.324;5.122;2022-07-21T00:07:15;19.73;83.42
67275;DHT22;55463;52.324;5.122;2022-07-21T00:09:41;19.66;83.80
67275;DHT22;55463;52.324;5.122;2022-07-21T00:12:06;19.67;83.78
67275;DHT22;55463;52.324;5.122;2022-07-21T00:14:32;19.63;84.70
67275;DHT22;55463;52.324;5.122;2022-07-21T00:16:57;19.65;84.57
67275;DHT22;55463;52.324;5.122;2022-07-21T00:19:23;19.59;85.16
67275;DHT22;55463;52.324;5.122;2022-07-21T00:21:48;19.62;85.51
67275;DHT22;55463;52.324;5.122;2022-07-21T00:24:14;19.61;85.37
67275;DHT22;55463;52.324;5.122;2022-07-21T00:26:39;19.62;85.74
67275;DHT22;55463;52.324;5.122;2022-07-21T00:29:05;19.62;85.62
67275;DHT22;55463;52.324;5.122;2022-07-21T00:31:30;19.65;85.42
67275;DHT22;55463;52.324;5.122;2022-07-21T00:33:56;19.62;85.66
67275;DHT22;55463;52.324;5.122;2022-07-21T00:36:21;19.59;85.92
67275;DHT22;55463;52.324;5.122;2022-07-21T00:38:47;19.56;85.93
67275;DHT22;55463;52.324;5.122;2022-07-21T00:41:13;19.63;86.21
67275;DHT22;55463;52.324;5.122;2022-07-21T00:43:38;19.58;86.69
67275;DHT22;55463;52.324;5.122;2022-07-21T00:46:04;19.59;86.48
67275;DHT22;55463;52.324;5.122;2022-07-21T00:48:29;19.58;86.09
67275;DHT22;55463;52.324;5.122;2022-07-21T00:50:55;19.55;86.17
67275;DHT22;55463;52.324;5.122;2022-07-21T00:53:20;19.55;86.30
67275;DHT22;55463;52.324;5.122;2022-07-21T00:55:46;19.52;86.41
67275;DHT22;55463;52.324;5.122;2022-07-21T00:58:12;19.48;86.03
67275;DHT22;55463;52.324;5.122;2022-07-21T01:00:38;19.55;86.50
67275;DHT22;55463;52.324;5.122;2022-07-21T01:03:05;19.52;86.35
67275;DHT22;55463;52.324;5.122;2022-07-21T01:05:30;19.48;86.27
67275;DHT22;55463;52.324;5.122;2022-07-21T01:07:59;19.51;86.04
67275;DHT22;55463;52.324;5.122;2022-07-21T01:10:28;19.46;86.09
67275;DHT22;55463;52.324;5.122;2022-07-21T01:12:54;19.51;86.06
67275;DHT22;55463;52.324;5.122;2022-07-21T01:15:20;19.46;86.15
67275;DHT22;55463;52.324;5.122;2022-07-21T01:17:47;19.42;86.28
67275;DHT22;55463;52.324;5.122;2022-07-21T01:20:18;19.41;86.38
67275;DHT22;55463;52.324;5.122;2022-07-21T01:22:47;19.45;86.26
67275;DHT22;55463;52.324;5.122;2022-07-21T01:25:13;19.45;86.10
67275;DHT22;55463;52.324;5.122;2022-07-21T01:27:39;19.39;86.05
67275;DHT22;55463;52.324;5.122;2022-07-21T01:30:06;19.36;86.38
67275;DHT22;55463;52.324;5.122;2022-07-21T01:32:36;19.35;86.49
67275;DHT22;55463;52.324;5.122;2022-07-21T01:35:03;19.38;86.91
67275;DHT22;55463;52.324;5.122;2022-07-21T01:37:30;19.34;86.75
67275;DHT22;55463;52.324;5.122;2022-07-21T01:39:56;19.34;86.74
67275;DHT22;55463;52.324;5.122;2022-07-21T01:42:40;19.29;87.08
67275;DHT22;55463;52.324;5.122;2022-07-21T01:45:05;19.29;87.00
67275;DHT22;55463;52.324;5.122;2022-07-21T01:47:32;19.29;87.07
67275;DHT22;55463;52.324;5.122;2022-07-21T01:49:57;19.29;87.06
67275;DHT22;55463;52.324;5.122;2022-07-21T01:52:23;19.31;87.11
67275;DHT22;55463;52.324;5.122;2022-07-21T01:54:48;19.32;87.32
67275;DHT22;55463;52.324;5.122;2022-07-21T01:57:14;19.32;87.21
67275;DHT22;55463;52.324;5.122;2022-07-21T01:59:40;19.36;87.34
67275;DHT22;55463;52.324;5.122;2022-07-21T02:02:05;19.32;87.44
67275;DHT22;55463;52.324;5.122;2022-07-21T02:04:31;19.29;87.40
67275;DHT22;55463;52.324;5.122;2022-07-21T02:06:56;19.25;87.68
67275;DHT22;55463;52.324;5.122;2022-07-21T02:09:21;19.24;87.88
67275;DHT22;55463;52.324;5.122;2022-07-21T02:11:47;19.26;87.98
67275;DHT22;55463;52.324;5.122;2022-07-21T02:14:12;19.26;88.00
67275;DHT22;55463;52.324;5.122;2022-07-21T02:16:37;19.29;88.17
67275;DHT22;55463;52.324;5.122;2022-07-21T02:19:04;19.31;88.42
67275;DHT22;55463;52.324;5.122;2022-07-21T02:21:29;19.29;87.95
67275;DHT22;55463;52.324;5.122;2022-07-21T02:23:55;19.28;88.07
67275;DHT22;55463;52.324;5.122;2022-07-21T02:26:20;19.32;88.52
67275;DHT22;55463;52.324;5.122;2022-07-21T02:28:46;19.31;88.83
67275;DHT22;55463;52.324;5.122;2022-07-21T02:31:11;19.41;88.60
67275;DHT22;55463;52.324;5.122;2022-07-21T02:33:36;19.44;88.37
67275;DHT22;55463;52.324;5.122;2022-07-21T02:36:02;19.41;88.08
67275;DHT22;55463;52.324;5.122;2022-07-21T02:38:28;19.39;88.09
67275;DHT22;55463;52.324;5.122;2022-07-21T02:40:53;19.29;88.39
67275;DHT22;55463;52.324;5.122;2022-07-21T02:43:18;19.31;88.35
67275;DHT22;55463;52.324;5.122;2022-07-21T02:45:44;19.25;88.45
67275;DHT22;55463;52.324;5.122;2022-07-21T02:48:11;19.25;88.57
67275;DHT22;55463;52.324;5.122;2022-07-21T02:50:40;19.22;88.69
67275;DHT22;55463;52.324;5.122;2022-07-21T02:53:11;19.21;88.63
67275;DHT22;55463;52.324;5.122;2022-07-21T02:55:37;19.18;88.78
67275;DHT22;55463;52.324;5.122;2022-07-21T02:58:20;19.17;88.90
67275;DHT22;55463;52.324;5.122;2022-07-21T03:03:16;19.22;89.04
67275;DHT22;55463;52.324;5.122;2022-07-21T03:05:41;19.21;89.43
67275;DHT22;55463;52.324;5.122;2022-07-21T03:08:08;19.19;89.25
67275;DHT22;55463;52.324;5.122;2022-07-21T03:10:34;19.19;89.06
67275;DHT22;55463;52.324;5.122;2022-07-21T03:13:00;19.21;88.96
67275;DHT22;55463;52.324;5.122;2022-07-21T03:15:26;19.22;88.84
67275;DHT22;55463;52.324;5.122;2022-07-21T03:17:55;19.21;89.14
67275;DHT22;55463;52.324;5.122;2022-07-21T03:20:29;19.21;89.09
67275;DHT22;55463;52.324;5.122;2022-07-21T03:22:55;19.19;89.35
67275;DHT22;55463;52.324;5.122;2022-07-21T03:25:21;19.17;89.49
67275;DHT22;55463;52.324;5.122;2022-07-21T03:27:47;19.18;89.64
67275;DHT22;55463;52.324;5.122;2022-07-21T03:30:14;19.17;89.42
67275;DHT22;55463;52.324;5.122;2022-07-21T03:32:39;19.17;89.19
67275;DHT22;55463;52.324;5.122;2022-07-21T03:35:06;19.17;89.34
67275;DHT22;55463;52.324;5.122;2022-07-21T03:37:32;19.15;89.52
67275;DHT22;55463;52.324;5.122;2022-07-21T03:39:58;19.12;89.46
67275;DHT22;55463;52.324;5.122;2022-07-21T03:42:23;19.10;89.50
67275;DHT22;55463;52.324;5.122;2022-07-21T03:44:48;19.12;89.80
67275;DHT22;55463;52.324;5.122;2022-07-21T03:47:14;19.15;89.64
67275;DHT22;55463;52.324;5.122;2022-07-21T03:49:39;19.14;89.60
67275;DHT22;55463;52.324;5.122;2022-07-21T03:52:05;19.07;89.94
67275;DHT22;55463;52.324;5.122;2022-07-21T03:54:30;19.07;90.10
67275;DHT22;55463;52.324;5.122;2022-07-21T03:56:55;19.06;90.06
67275;DHT22;55463;52.324;5.122;2022-07-21T03:59:21;19.04;90.14
67275;DHT22;55463;52.324;5.122;2022-07-21T04:01:46;19.07;90.27
67275;DHT22;55463;52.324;5.122;2022-07-21T04:04:11;19.06;90.25
67275;DHT22;55463;52.324;5.122;2022-07-21T04:06:37;19.08;90.38
67275;DHT22;55463;52.324;5.122;2022-07-21T04:09:03;19.10;90.17
67275;DHT22;55463;52.324;5.122;2022-07-21T04:11:28;19.11;90.38
67275;DHT22;55463;52.324;5.122;2022-07-21T04:13:55;19.11;90.52
67275;DHT22;55463;52.324;5.122;2022-07-21T04:16:21;19.14;90.45
67275;DHT22;55463;52.324;5.122;2022-07-21T04:18:46;19.17;90.45
67275;DHT22;55463;52.324;5.122;2022-07-21T04:21:11;19.17;90.51
67275;DHT22;55463;52.324;5.122;2022-07-21T04:23:37;19.21;90.58
67275;DHT22;55463;52.324;5.122;2022-07-21T04:26:02;19.22;90.54
67275;DHT22;55463;52.324;5.122;2022-07-21T04:28:27;19.24;90.55
67275;DHT22;55463;52.324;5.122;2022-07-21T04:30:53;19.29;90.46
67275;DHT22;55463;52.324;5.122;2022-07-21T04:33:18;19.31;90.58
67275;DHT22;55463;52.324;5.122;2022-07-21T04:35:43;19.29;90.57
67275;DHT22;55463;52.324;5.122;2022-07-21T04:38:10;19.32;90.54
67275;DHT22;55463;52.324;5.122;2022-07-21T04:40:36;19.31;90.70
67275;DHT22;55463;52.324;5.122;2022-07-21T04:43:01;19.28;90.54
67275;DHT22;55463;52.324;5.122;2022-07-21T04:45:27;19.26;90.73
67275;DHT22;55463;52.324;5.122;2022-07-21T04:47:54;19.29;90.54
67275;DHT22;55463;52.324;5.122;2022-07-21T04:50:24;19.31;90.78
67275;DHT22;55463;52.324;5.122;2022-07-21T04:52:50;19.29;90.79
67275;DHT22;55463;52.324;5.122;2022-07-21T04:55:16;19.28;90.81
67275;DHT22;55463;52.324;5.122;2022-07-21T04:57:46;19.35;90.82
67275;DHT22;55463;52.324;5.122;2022-07-21T05:00:14;19.38;90.85
67275;DHT22;55463;52.324;5.122;2022-07-21T05:02:40;19.35;90.70
67275;DHT22;55463;52.324;5.122;2022-07-21T05:05:06;19.32;90.38
67275;DHT22;55463;52.324;5.122;2022-07-21T05:07:32;19.41;90.06
67275;DHT22;55463;52.324;5.122;2022-07-21T05:09:57;19.51;90.19
67275;DHT22;55463;52.324;5.122;2022-07-21T05:12:27;19.48;89.78
67275;DHT22;55463;52.324;5.122;2022-07-21T05:14:52;19.56;89.76
67275;DHT22;55463;52.324;5.122;2022-07-21T05:17:18;19.61;89.58
67275;DHT22;55463;52.324;5.122;2022-07-21T05:19:43;19.56;89.41
67275;DHT22;55463;52.324;5.122;2022-07-21T05:22:10;19.62;89.87
67275;DHT22;55463;52.324;5.122;2022-07-21T05:24:36;19.66;89.65
67275;DHT22;55463;52.324;5.122;2022-07-21T05:27:01;19.65;89.33
67275;DHT22;55463;52.324;5.122;2022-07-21T05:29:26;19.69;89.55
67275;DHT22;55463;52.324;5.122;2022-07-21T05:31:52;19.63;89.28
67275;DHT22;55463;52.324;5.122;2022-07-21T05:34:17;19.65;89.40
67275;DHT22;55463;52.324;5.122;2022-07-21T05:36:42;19.65;89.22
67275;DHT22;55463;52.324;5.122;2022-07-21T05:39:08;19.72;89.36
67275;DHT22;55463;52.324;5.122;2022-07-21T05:41:34;19.76;89.24
67275;DHT22;55463;52.324;5.122;2022-07-21T05:43:59;19.72;89.16
67275;DHT22;55463;52.324;5.122;2022-07-21T05:46:24;19.72;88.93
67275;DHT22;55463;52.324;5.122;2022-07-21T05:48:50;19.77;88.89
67275;DHT22;55463;52.324;5.122;2022-07-21T05:51:15;19.83;88.43
67275;DHT22;55463;52.324;5.122;2022-07-21T05:53:40;19.93;88.66
67275;DHT22;55463;52.324;5.122;2022-07-21T05:56:06;20.11;88.33
67275;DHT22;55463;52.324;5.122;2022-07-21T05:58:33;20.14;88.28
67275;DHT22;55463;52.324;5.122;2022-07-21T06:00:59;20.15;87.82
67275;DHT22;55463;52.324;5.122;2022-07-21T06:03:37;20.13;87.97
67275;DHT22;55463;52.324;5.122;2022-07-21T06:06:03;20.24;87.69
67275;DHT22;55463;52.324;5.122;2022-07-21T06:08:28;20.24;87.62
67275;DHT22;55463;52.324;5.122;2022-07-21T06:10:54;20.46;87.16
67275;DHT22;55463;52.324;5.122;2022-07-21T06:13:19;20.68;86.73
67275;DHT22;55463;52.324;5.122;2022-07-21T06:15:45;20.73;86.23
67275;DHT22;55463;52.324;5.122;2022-07-21T06:18:10;20.72;86.53
67275;DHT22;55463;52.324;5.122;2022-07-21T06:20:36;20.72;86.63
67275;DHT22;55463;52.324;5.122;2022-07-21T06:23:01;20.77;86.49
67275;DHT22;55463;52.324;5.122;2022-07-21T06:25:26;20.81;85.83
67275;DHT22;55463;52.324;5.122;2022-07-21T06:27:52;20.72;86.23
67275;DHT22;55463;52.324;5.122;2022-07-21T06:30:17;20.80;85.75
67275;DHT22;55463;52.324;5.122;2022-07-21T06:32:43;20.87;85.44
67275;DHT22;55463;52.324;5.122;2022-07-21T06:35:08;20.98;85.28
67275;DHT22;55463;52.324;5.122;2022-07-21T06:37:34;20.94;86.01
67275;DHT22;55463;52.324;5.122;2022-07-21T06:39:59;20.91;86.00
67275;DHT22;55463;52.324;5.122;2022-07-21T06:42:25;20.73;86.36
67275;DHT22;55463;52.324;5.122;2022-07-21T06:44:50;20.56;86.36
67275;DHT22;55463;52.324;5.122;2022-07-21T06:47:16;20.46;87.14
67275;DHT22;55463;52.324;5.122;2022-07-21T06:49:41;20.52;87.13
67275;DHT22;55463;52.324;5.122;2022-07-21T06:52:07;20.52;87.04
67275;DHT22;55463;52.324;5.122;2022-07-21T06:54:32;20.63;86.75
67275;DHT22;55463;52.324;5.122;2022-07-21T06:56:57;20.68;86.23
67275;DHT22;55463;52.324;5.122;2022-07-21T06:59:23;20.70;86.30
67275;DHT22;55463;52.324;5.122;2022-07-21T07:01:48;20.62;86.31
67275;DHT22;55463;52.324;5.122;2022-07-21T07:04:13;20.57;86.05
67275;DHT22;55463;52.324;5.122;2022-07-21T07:06:39;20.57;86.06
67275;DHT22;55463;52.324;5.122;2022-07-21T07:09:05;20.45;86.32
67275;DHT22;55463;52.324;5.122;2022-07-21T07:11:30;20.52;86.32
67275;DHT22;55463;52.324;5.122;2022-07-21T07:13:55;20.41;86.70
67275;DHT22;55463;52.324;5.122;2022-07-21T07:16:21;20.42;86.49
67275;DHT22;55463;52.324;5.122;2022-07-21T07:18:46;20.25;86.95
67275;DHT22;55463;52.324;5.122;2022-07-21T07:21:12;20.26;87.13
67275;DHT22;55463;52.324;5.122;2022-07-21T07:23:38;20.24;87.45
67275;DHT22;55463;52.324;5.122;2022-07-21T07:26:04;20.11;87.66
67275;DHT22;55463;52.324;5.122;2022-07-21T07:28:29;20.21;87.68
67275;DHT22;55463;52.324;5.122;2022-07-21T07:30:55;20.24;87.55
67275;DHT22;55463;52.324;5.122;2022-07-21T07:33:20;20.11;87.68
67275;DHT22;55463;52.324;5.122;2022-07-21T07:35:47;20.04;88.28
67275;DHT22;55463;52.324;5.122;2022-07-21T07:38:13;19.97;88.26
67275;DHT22;55463;52.324;5.122;2022-07-21T07:40:40;20.01;88.46
67275;DHT22;55463;52.324;5.122;2022-07-21T07:43:06;19.96;88.88
67275;DHT22;55463;52.324;5.122;2022-07-21T07:45:31;19.94;89.11
67275;DHT22;55463;52.324;5.122;2022-07-21T07:47:57;19.89;88.75
67275;DHT22;55463;52.324;5.122;2022-07-21T07:50:22;19.84;88.85
67275;DHT22;55463;52.324;5.122;2022-07-21T07:52:47;19.81;89.49
67275;DHT22;55463;52.324;5.122;2022-07-21T07:55:13;19.80;90.09
67275;DHT22;55463;52.324;5.122;2022-07-21T07:57:40;19.72;90.77
67275;DHT22;55463;52.324;5.122;2022-07-21T08:00:09;19.53;91.53
67275;DHT22;55463;52.324;5.122;2022-07-21T08:02:35;19.53;92.12
67275;DHT22;55463;52.324;5.122;2022-07-21T08:05:00;19.48;92.93
67275;DHT22;55463;52.324;5.122;2022-07-21T08:07:26;19.36;93.76
67275;DHT22;55463;52.324;5.122;2022-07-21T08:09:51;19.31;94.21
67275;DHT22;55463;52.324;5.122;2022-07-21T08:12:17;19.28;94.83
67275;DHT22;55463;52.324;5.122;2022-07-21T08:14:42;19.18;95.30
67275;DHT22;55463;52.324;5.122;2022-07-21T08:17:07;19.18;95.86
67275;DHT22;55463;52.324;5.122;2022-07-21T08:19:33;19.08;95.91
67275;DHT22;55463;52.324;5.122;2022-07-21T08:21:58;19.06;96.57
67275;DHT22;55463;52.324;5.122;2022-07-21T08:24:24;19.04;96.78
67275;DHT22;55463;52.324;5.122;2022-07-21T08:26:52;18.97;96.78
67275;DHT22;55463;52.324;5.122;2022-07-21T08:29:17;19.01;96.87
67275;DHT22;55463;52.324;5.122;2022-07-21T08:31:42;19.01;97.23
67275;DHT22;55463;52.324;5.122;2022-07-21T08:34:08;19.04;97.30
67275;DHT22;55463;52.324;5.122;2022-07-21T08:36:33;18.97;97.13
67275;DHT22;55463;52.324;5.122;2022-07-21T08:38:58;19.01;97.26
67275;DHT22;55463;52.324;5.122;2022-07-21T08:41:24;19.00;97.14
67275;DHT22;55463;52.324;5.122;2022-07-21T08:43:50;18.90;97.08
67275;DHT22;55463;52.324;5.122;2022-07-21T08:46:16;18.86;97.46
67275;DHT22;55463;52.324;5.122;2022-07-21T08:48:42;18.84;97.65
67275;DHT22;55463;52.324;5.122;2022-07-21T08:51:08;18.74;97.58
67275;DHT22;55463;52.324;5.122;2022-07-21T08:53:33;18.62;97.56
67275;DHT22;55463;52.324;5.122;2022-07-21T08:55:58;18.63;97.72
67275;DHT22;55463;52.324;5.122;2022-07-21T08:58:24;18.67;98.16
67275;DHT22;55463;52.324;5.122;2022-07-21T09:00:50;18.63;97.78
67275;DHT22;55463;52.324;5.122;2022-07-21T09:03:24;18.45;97.47
67275;DHT22;55463;52.324;5.122;2022-07-21T09:06:05;18.57;98.17
67275;DHT22;55463;52.324;5.122;2022-07-21T09:08:38;18.67;98.23
67275;DHT22;55463;52.324;5.122;2022-07-21T09:11:10;18.55;97.48
67275;DHT22;55463;52.324;5.122;2022-07-21T09:13:36;18.67;97.99
67275;DHT22;55463;52.324;5.122;2022-07-21T09:16:01;18.69;97.90
67275;DHT22;55463;52.324;5.122;2022-07-21T09:18:27;18.77;97.94
67275;DHT22;55463;52.324;5.122;2022-07-21T09:20:53;18.77;97.83
67275;DHT22;55463;52.324;5.122;2022-07-21T09:23:21;18.70;97.79
67275;DHT22;55463;52.324;5.122;2022-07-21T09:25:51;18.72;97.70
67275;DHT22;55463;52.324;5.122;2022-07-21T09:28:20;18.59;97.29
67275;DHT22;55463;52.324;5.122;2022-07-21T09:31:05;18.59;97.28
67275;DHT22;55463;52.324;5.122;2022-07-21T09:33:37;18.60;97.36
67275;DHT22;55463;52.324;5.122;2022-07-21T09:36:10;18.66;97.52
67275;DHT22;55463;52.324;5.122;2022-07-21T09:38:42;18.69;97.45
67275;DHT22;55463;52.324;5.122;2022-07-21T09:43:38;18.69;97.28
67275;DHT22;55463;52.324;5.122;2022-07-21T09:46:09;18.64;97.35
67275;DHT22;55463;52.324;5.122;2022-07-21T09:48:37;18.55;96.67
67275;DHT22;55463;52.324;5.122;2022-07-21T09:54:10;18.45;97.24
67275;DHT22;55463;52.324;5.122;2022-07-21T09:56:38;18.38;97.17
67275;DHT22;55463;52.324;5.122;2022-07-21T09:59:06;18.42;97.57
67275;DHT22;55463;52.324;5.122;2022-07-21T10:01:32;18.32;96.73
67275;DHT22;55463;52.324;5.122;2022-07-21T10:03:59;18.39;97.38
67275;DHT22;55463;52.324;5.122;2022-07-21T10:06:30;18.36;97.34
67275;DHT22;55463;52.324;5.122;2022-07-21T10:08:57;18.29;96.93
67275;DHT22;55463;52.324;5.122;2022-07-21T10:11:23;18.22;97.20
67275;DHT22;55463;52.324;5.122;2022-07-21T10:13:49;18.22;97.02
67275;DHT22;55463;52.324;5.122;2022-07-21T10:16:15;18.29;97.82
67275;DHT22;55463;52.324;5.122;2022-07-21T10:24:04;18.19;97.20
67275;DHT22;55463;52.324;5.122;2022-07-21T10:26:30;18.15;97.19
67275;DHT22;55463;52.324;5.122;2022-07-21T10:28:55;18.21;97.18
67275;DHT22;55463;52.324;5.122;2022-07-21T10:31:23;18.25;97.28
67275;DHT22;55463;52.324;5.122;2022-07-21T10:39:12;18.22;97.68
67275;DHT22;55463;52.324;5.122;2022-07-21T10:41:44;18.15;96.85
67275;DHT22;55463;52.324;5.122;2022-07-21T10:47:09;18.24;97.25
67275;DHT22;55463;52.324;5.122;2022-07-21T10:50:04;18.32;97.77
67275;DHT22;55463;52.324;5.122;2022-07-21T10:57:42;18.25;97.17
67275;DHT22;55463;52.324;5.122;2022-07-21T11:02:47;18.38;98.12
67275;DHT22;55463;52.324;5.122;2022-07-21T11:05:13;18.53;98.25
67275;DHT22;55463;52.324;5.122;2022-07-21T11:10:38;18.56;97.75
67275;DHT22;55463;52.324;5.122;2022-07-21T11:13:04;18.44;97.14
67275;DHT22;55463;52.324;5.122;2022-07-21T11:15:53;18.48;97.83
67275;DHT22;55463;52.324;5.122;2022-07-21T11:18:21;18.42;97.71
67275;DHT22;55463;52.324;5.122;2022-07-21T11:21:11;18.46;97.85
67275;DHT22;55463;52.324;5.122;2022-07-21T11:23:49;18.62;98.08
67275;DHT22;55463;52.324;5.122;2022-07-21T11:26:18;18.70;97.43
67275;DHT22;55463;52.324;5.122;2022-07-21T11:28:45;18.79;97.84
67275;DHT22;55463;52.324;5.122;2022-07-21T11:31:19;18.96;98.39
67275;DHT22;55463;52.324;5.122;2022-07-21T11:33:49;19.04;97.65
67275;DHT22;55463;52.324;5.122;2022-07-21T11:36:29;19.01;96.37
67275;DHT22;55463;52.324;5.122;2022-07-21T11:39:10;19.24;97.63
67275;DHT22;55463;52.324;5.122;2022-07-21T11:41:37;19.19;96.79
67275;DHT22;55463;52.324;5.122;2022-07-21T11:44:04;19.15;96.84
67275;DHT22;55463;52.324;5.122;2022-07-21T11:46:50;19.19;96.95
67275;DHT22;55463;52.324;5.122;2022-07-21T11:49:16;19.22;96.24
67275;DHT22;55463;52.324;5.122;2022-07-21T11:51:51;19.17;95.64
67275;DHT22;55463;52.324;5.122;2022-07-21T11:54:26;19.04;95.56
67275;DHT22;55463;52.324;5.122;2022-07-21T11:56:52;19.14;96.13
67275;DHT22;55463;52.324;5.122;2022-07-21T11:59:18;19.18;96.21
67275;DHT22;55463;52.324;5.122;2022-07-21T12:07:29;19.17;94.93
67275;DHT22;55463;52.324;5.122;2022-07-21T12:10:00;19.19;96.05
67275;DHT22;55463;52.324;5.122;2022-07-21T12:12:34;19.31;96.41
67275;DHT22;55463;52.324;5.122;2022-07-21T12:17:54;19.11;95.93
67275;DHT22;55463;52.324;5.122;2022-07-21T12:20:35;19.03;96.39
67275;DHT22;55463;52.324;5.122;2022-07-21T12:23:07;19.01;96.69
67275;DHT22;55463;52.324;5.122;2022-07-21T12:25:42;18.97;96.66
67275;DHT22;55463;52.324;5.122;2022-07-21T12:28:07;18.96;96.86
67275;DHT22;55463;52.324;5.122;2022-07-21T12:30:38;18.84;96.56
67275;DHT22;55463;52.324;5.122;2022-07-21T12:33:40;18.91;97.21
67275;DHT22;55463;52.324;5.122;2022-07-21T12:36:01;18.91;96.73
67275;DHT22;55463;52.324;5.122;2022-07-21T12:38:45;18.83;96.68
67275;DHT22;55463;52.324;5.122;2022-07-21T12:41:15;18.97;97.06
67275;DHT22;55463;52.324;5.122;2022-07-21T12:43:41;19.08;97.24
67275;DHT22;55463;52.324;5.122;2022-07-21T12:46:14;19.07;96.91
67275;DHT22;55463;52.324;5.122;2022-07-21T12:48:41;19.21;97.36
67275;DHT22;55463;52.324;5.122;2022-07-21T12:51:20;19.15;97.21
67275;DHT22;55463;52.324;5.122;2022-07-21T12:53:48;19.21;97.17
67275;DHT22;55463;52.324;5.122;2022-07-21T12:56:17;19.15;96.87
67275;DHT22;55463;52.324;5.122;2022-07-21T12:58:43;19.04;96.82
67275;DHT22;55463;52.324;5.122;2022-07-21T13:01:09;19.01;96.68
67275;DHT22;55463;52.324;5.122;2022-07-21T13:03:35;18.96;96.91
67275;DHT22;55463;52.324;5.122;2022-07-21T13:06:08;18.91;96.67
67275;DHT22;55463;52.324;5.122;2022-07-21T13:08:34;18.84;96.68
67275;DHT22;55463;52.324;5.122;2022-07-21T13:11:00;18.84;97.14
67275;DHT22;55463;52.324;5.122;2022-07-21T13:13:26;18.90;97.29
67275;DHT22;55463;52.324;5.122;2022-07-21T13:15:53;18.83;97.17
67275;DHT22;55463;52.324;5.122;2022-07-21T13:18:30;18.91;97.63
67275;DHT22;55463;52.324;5.122;2022-07-21T13:20:56;19.08;97.79
67275;DHT22;55463;52.324;5.122;2022-07-21T13:23:22;19.03;97.18
67275;DHT22;55463;52.324;5.122;2022-07-21T13:25:47;19.15;97.96
67275;DHT22;55463;52.324;5.122;2022-07-21T13:28:16;19.26;97.84
67275;DHT22;55463;52.324;5.122;2022-07-21T13:30:54;19.32;97.49
67275;DHT22;55463;52.324;5.122;2022-07-21T13:33:19;19.26;97.48
67275;DHT22;55463;52.324;5.122;2022-07-21T13:35:45;19.19;97.38
67275;DHT22;55463;52.324;5.122;2022-07-21T13:38:11;19.12;96.90
67275;DHT22;55463;52.324;5.122;2022-07-21T13:40:36;19.17;96.83
67275;DHT22;55463;52.324;5.122;2022-07-21T13:43:03;19.24;97.17
67275;DHT22;55463;52.324;5.122;2022-07-21T13:45:44;19.35;97.36
67275;DHT22;55463;52.324;5.122;2022-07-21T13:48:10;19.39;97.39
67275;DHT22;55463;52.324;5.122;2022-07-21T13:50:35;19.46;97.08
67275;DHT22;55463;52.324;5.122;2022-07-21T13:53:00;19.44;96.92
67275;DHT22;55463;52.324;5.122;2022-07-21T13:55:26;19.46;96.70
67275;DHT22;55463;52.324;5.122;2022-07-21T13:57:57;19.39;96.01
67275;DHT22;55463;52.324;5.122;2022-07-21T14:00:22;19.46;96.68
67275;DHT22;55463;52.324;5.122;2022-07-21T14:02:48;19.51;96.32
67275;DHT22;55463;52.324;5.122;2022-07-21T14:05:13;19.63;96.66
67275;DHT22;55463;52.324;5.122;2022-07-21T14:07:39;19.51;95.32
67275;DHT22;55463;52.324;5.122;2022-07-21T14:10:32;19.62;96.61
67275;DHT22;55463;52.324;5.122;2022-07-21T14:12:58;19.59;96.24
67275;DHT22;55463;52.324;5.122;2022-07-21T14:15:24;19.41;95.40
67275;DHT22;55463;52.324;5.122;2022-07-21T14:17:49;19.36;95.95
67275;DHT22;55463;52.324;5.122;2022-07-21T14:20:30;19.31;96.77
67275;DHT22;55463;52.324;5.122;2022-07-21T14:22:55;19.31;97.04
67275;DHT22;55463;52.324;5.122;2022-07-21T14:25:21;19.34;96.96
67275;DHT22;55463;52.324;5.122;2022-07-21T14:27:48;19.32;96.95
67275;DHT22;55463;52.324;5.122;2022-07-21T14:30:15;19.32;96.94
67275;DHT22;55463;52.324;5.122;2022-07-21T14:33:00;19.42;97.39
67275;DHT22;55463;52.324;5.122;2022-07-21T14:35:26;19.32;96.51
67275;DHT22;55463;52.324;5.122;2022-07-21T14:37:53;19.08;95.97
67275;DHT22;55463;52.324;5.122;2022-07-21T14:40:19;18.93;96.92
67275;DHT22;55463;52.324;5.122;2022-07-21T14:42:45;18.87;97.19
67275;DHT22;55463;52.324;5.122;2022-07-21T14:45:12;18.89;97.59
67275;DHT22;55463;52.324;5.122;2022-07-21T14:47:37;18.90;97.90
67275;DHT22;55463;52.324;5.122;2022-07-21T14:50:03;18.84;97.13
67275;DHT22;55463;52.324;5.122;2022-07-21T14:52:28;18.86;97.64
67275;DHT22;55463;52.324;5.122;2022-07-21T14:54:54;18.76;97.39
67275;DHT22;55463;52.324;5.122;2022-07-21T14:57:19;18.73;97.23
67275;DHT22;55463;52.324;5.122;2022-07-21T14:59:45;18.74;98.01
67275;DHT22;55463;52.324;5.122;2022-07-21T15:02:10;18.62;97.41
67275;DHT22;55463;52.324;5.122;2022-07-21T15:04:36;18.56;97.18
67275;DHT22;55463;52.324;5.122;2022-07-21T15:07:05;18.38;97.05
67275;DHT22;55463;52.324;5.122;2022-07-21T15:09:30;18.36;97.49
67275;DHT22;55463;52.324;5.122;2022-07-21T15:11:58;18.36;97.55
67275;DHT22;55463;52.324;5.122;2022-07-21T15:14:24;18.28;96.94
67275;DHT22;55463;52.324;5.122;2022-07-21T15:16:49;18.05;96.55
67275;DHT22;55463;52.324;5.122;2022-07-21T15:19:14;18.04;96.27
67275;DHT22;55463;52.324;5.122;2022-07-21T15:21:40;17.97;96.68
67275;DHT22;55463;52.324;5.122;2022-07-21T15:24:07;17.79;96.74
67275;DHT22;55463;52.324;5.122;2022-07-21T15:26:33;17.86;97.54
67275;DHT22;55463;52.324;5.122;2022-07-21T15:28:58;17.90;98.04
67275;DHT22;55463;52.324;5.122;2022-07-21T15:31:24;17.80;97.76
67275;DHT22;55463;52.324;5.122;2022-07-21T15:33:49;17.77;97.90
67275;DHT22;55463;52.324;5.122;2022-07-21T15:36:17;17.65;98.05
67275;DHT22;55463;52.324;5.122;2022-07-21T15:38:43;17.69;98.07
67275;DHT22;55463;52.324;5.122;2022-07-21T15:41:08;17.66;98.05
67275;DHT22;55463;52.324;5.122;2022-07-21T15:43:33;17.67;98.05
67275;DHT22;55463;52.324;5.122;2022-07-21T15:45:59;17.72;98.10
67275;DHT22;55463;52.324;5.122;2022-07-21T15:48:24;17.67;97.94
67275;DHT22;55463;52.324;5.122;2022-07-21T15:50:49;17.57;97.94
67275;DHT22;55463;52.324;5.122;2022-07-21T15:53:15;17.52;97.83
67275;DHT22;55463;52.324;5.122;2022-07-21T15:55:40;17.55;98.05
67275;DHT22;55463;52.324;5.122;2022-07-21T15:58:06;17.49;97.81
67275;DHT22;55463;52.324;5.122;2022-07-21T16:00:32;17.43;97.74
67275;DHT22;55463;52.324;5.122;2022-07-21T16:02:57;17.40;97.40
67275;DHT22;55463;52.324;5.122;2022-07-21T16:05:24;17.36;98.12
67275;DHT22;55463;52.324;5.122;2022-07-21T16:07:52;17.29;97.33
67275;DHT22;55463;52.324;5.122;2022-07-21T16:10:20;17.22;97.52
67275;DHT22;55463;52.324;5.122;2022-07-21T16:12:47;17.27;97.49